createdAt,value
2023-03-08T00:01:13.346Z,16.80
2023-03-08T00:06:08.490Z,14.63
2023-03-08T00:08:35.130Z,15.13
2023-03-08T00:11:08.402Z,14.73
2023-03-08T00:13:35.885Z,13.93
2023-03-08T00:16:04.479Z,13.07
2023-03-08T00:18:31.604Z,13.85
2023-03-08T00:21:02.489Z,13.45
2023-03-08T00:23:29.063Z,11.88
2023-03-08T00:25:55.902Z,11.30
2023-03-08T00:28:23.408Z,10.63
2023-03-08T00:31:00.079Z,10.05
2023-03-08T00:33:28.206Z,8.95
2023-03-08T00:36:00.736Z,8.02
2023-03-08T00:38:31.240Z,7.75
2023-03-08T00:40:58.084Z,8.65
2023-03-08T00:43:25.294Z,8.80
2023-03-08T00:45:53.268Z,8.00
2023-03-08T00:48:22.469Z,7.05
2023-03-08T00:50:51.375Z,8.20
2023-03-08T00:53:17.996Z,7.80
2023-03-08T00:55:49.834Z,7.82
2023-03-08T00:58:17.241Z,7.72
2023-03-08T01:00:44.312Z,7.72
2023-03-08T01:03:10.980Z,7.97
2023-03-08T01:05:46.189Z,7.82
2023-03-08T01:08:13.809Z,7.85
2023-03-08T01:10:40.463Z,8.95
2023-03-08T01:13:08.370Z,8.75
2023-03-08T01:15:37.374Z,8.35
2023-03-08T01:18:06.206Z,8.32
2023-03-08T01:20:33.111Z,9.07
2023-03-08T01:23:00.386Z,8.27
2023-03-08T01:25:27.516Z,8.05
2023-03-08T01:27:54.104Z,8.63
2023-03-08T01:30:20.972Z,9.27
2023-03-08T01:32:47.626Z,8.80
2023-03-08T01:35:14.437Z,9.00
2023-03-08T01:37:41.210Z,9.35
2023-03-08T01:40:09.319Z,9.00
2023-03-08T01:42:38.879Z,10.40
2023-03-08T01:45:26.536Z,10.50
2023-03-08T01:47:53.303Z,10.10
2023-03-08T01:50:25.706Z,9.85
2023-03-08T01:52:55.406Z,10.25
2023-03-08T01:55:22.345Z,10.25
2023-03-08T01:57:54.030Z,11.10
2023-03-08T02:00:23.161Z,11.95
2023-03-08T02:02:59.639Z,10.75
2023-03-08T02:05:27.671Z,12.77
2023-03-08T02:08:00.336Z,12.55
2023-03-08T02:10:32.221Z,13.18
2023-03-08T02:12:58.861Z,12.35
2023-03-08T02:15:25.488Z,14.10
2023-03-08T02:17:55.598Z,12.25
2023-03-08T02:20:32.067Z,12.88
2023-03-08T02:23:22.128Z,12.60
2023-03-08T02:25:57.096Z,12.55
2023-03-08T02:28:26.364Z,12.68
2023-03-08T02:30:54.444Z,13.07
2023-03-08T02:33:21.635Z,12.32
2023-03-08T02:35:50.185Z,12.85
2023-03-08T02:38:18.570Z,12.32
2023-03-08T02:40:45.505Z,12.55
2023-03-08T02:43:12.147Z,13.82
2023-03-08T02:45:39.887Z,12.45
2023-03-08T02:48:08.476Z,13.98
2023-03-08T02:50:36.477Z,13.13
2023-03-08T02:53:04.441Z,13.10
2023-03-08T02:55:36.018Z,12.63
2023-03-08T02:58:08.389Z,12.82
2023-03-08T03:00:35.443Z,12.50
2023-03-08T03:03:02.076Z,13.30
2023-03-08T03:05:28.796Z,14.10
2023-03-08T03:07:58.627Z,14.27
2023-03-08T03:10:27.990Z,14.05
2023-03-08T03:12:55.499Z,14.48
2023-03-08T03:15:25.669Z,14.77
2023-03-08T03:17:56.869Z,15.88
2023-03-08T03:20:23.521Z,15.82
2023-03-08T03:22:50.176Z,15.82
2023-03-08T03:25:19.173Z,13.77
2023-03-08T03:27:47.479Z,16.80
2023-03-08T03:30:18.342Z,17.37
2023-03-08T03:32:46.199Z,17.83
2023-03-08T03:35:16.782Z,17.02
2023-03-08T03:37:43.752Z,17.50
2023-03-08T03:40:14.157Z,17.60
2023-03-08T03:42:43.360Z,18.40
2023-03-08T03:45:13.257Z,17.35
2023-03-08T03:47:42.726Z,18.33
2023-03-08T03:50:10.829Z,18.17
2023-03-08T03:53:00.203Z,19.65
2023-03-08T03:55:27.777Z,19.02
2023-03-08T03:57:54.874Z,20.48
2023-03-08T04:00:22.199Z,21.58
2023-03-08T04:02:59.289Z,20.85
2023-03-08T04:05:27.387Z,21.83
2023-03-08T04:07:54.470Z,21.10
2023-03-08T04:10:24.738Z,20.60
2023-03-08T04:12:53.084Z,22.63
2023-03-08T04:15:21.463Z,21.75
2023-03-08T04:17:48.283Z,19.98
2023-03-08T04:20:15.363Z,19.85
2023-03-08T04:22:49.930Z,21.20
2023-03-08T04:25:23.085Z,20.30
2023-03-08T04:27:55.508Z,20.65
2023-03-08T04:30:22.085Z,21.10
2023-03-08T04:32:49.504Z,19.50
2023-03-08T04:35:16.359Z,21.23
2023-03-08T04:37:46.814Z,20.40
2023-03-08T04:40:16.620Z,19.95
2023-03-08T04:42:52.828Z,20.05
2023-03-08T04:45:25.204Z,21.65
2023-03-08T04:47:54.363Z,22.27
2023-03-08T04:50:21.038Z,21.80
2023-03-08T04:52:47.843Z,22.88
2023-03-08T04:55:14.579Z,26.27
2023-03-08T04:57:41.259Z,25.27
2023-03-08T05:00:11.070Z,25.92
2023-03-08T05:02:39.410Z,26.75
2023-03-08T05:05:11.945Z,27.33
2023-03-08T05:07:38.910Z,27.92
2023-03-08T05:10:05.805Z,28.27
2023-03-08T05:12:32.369Z,28.30
2023-03-08T05:15:00.592Z,27.75
2023-03-08T05:17:27.644Z,28.90
2023-03-08T05:19:55.055Z,27.83
2023-03-08T05:22:27.246Z,27.85
2023-03-08T05:24:56.715Z,28.55
2023-03-08T05:27:24.132Z,28.63
2023-03-08T05:29:52.670Z,28.45
2023-03-08T05:32:19.331Z,27.45
2023-03-08T05:34:45.926Z,28.05
2023-03-08T05:37:18.964Z,27.83
2023-03-08T05:39:48.202Z,29.27
2023-03-08T05:42:20.434Z,29.40
2023-03-08T05:44:47.412Z,27.33
2023-03-08T05:47:18.245Z,29.25
2023-03-08T05:49:44.952Z,28.70
2023-03-08T05:52:12.391Z,29.50
2023-03-08T05:54:40.075Z,29.38
2023-03-08T05:57:11.206Z,28.27
2023-03-08T05:59:38.359Z,29.90
2023-03-08T06:02:07.511Z,28.77
2023-03-08T06:04:39.097Z,29.42
2023-03-08T06:07:05.745Z,28.45
2023-03-08T06:09:36.999Z,30.25
2023-03-08T06:12:04.243Z,29.20
2023-03-08T06:14:30.986Z,29.48
2023-03-08T06:16:57.813Z,31.38
2023-03-08T06:19:27.537Z,30.25
2023-03-08T06:21:56.340Z,29.80
2023-03-08T06:24:23.374Z,30.35
2023-03-08T06:26:50.571Z,29.65
2023-03-08T06:29:17.273Z,33.25
2023-03-08T06:31:44.581Z,35.83
2023-03-08T06:34:12.923Z,37.53
2023-03-08T06:36:40.457Z,35.33
2023-03-08T06:39:07.134Z,37.15
2023-03-08T06:41:33.893Z,37.08
2023-03-08T06:44:02.346Z,34.83
2023-03-08T06:46:29.094Z,35.47
2023-03-08T06:48:55.996Z,34.47
2023-03-08T06:51:23.141Z,36.47
2023-03-08T06:53:50.293Z,34.58
2023-03-08T06:56:20.527Z,34.33
2023-03-08T06:58:47.216Z,37.08
2023-03-08T07:01:14.110Z,35.80
2023-03-08T07:03:41.758Z,36.92
2023-03-08T07:06:09.872Z,35.05
2023-03-08T07:08:38.253Z,39.05
2023-03-08T07:11:06.519Z,39.75
2023-03-08T07:13:33.143Z,37.78
2023-03-08T07:15:59.813Z,38.85
2023-03-08T07:18:26.553Z,38.03
2023-03-08T07:20:55.655Z,38.17
2023-03-08T07:23:22.485Z,36.55
2023-03-08T07:25:49.077Z,37.63
2023-03-08T07:28:15.639Z,39.08
2023-03-08T07:30:50.798Z,36.17
2023-03-08T07:33:19.641Z,38.33
2023-03-08T07:35:46.702Z,36.95
2023-03-08T07:38:13.567Z,37.78
2023-03-08T07:40:40.405Z,36.35
2023-03-08T07:43:07.498Z,36.78
2023-03-08T07:45:48.894Z,37.05
2023-03-08T07:48:15.815Z,37.33
2023-03-08T07:50:42.418Z,37.13
2023-03-08T07:53:09.150Z,38.33
2023-03-08T07:55:38.136Z,37.08
2023-03-08T07:58:04.797Z,36.60
2023-03-08T08:00:31.404Z,37.13
2023-03-08T08:02:57.952Z,38.00
2023-03-08T08:05:24.735Z,36.20
2023-03-08T08:07:51.346Z,36.58
2023-03-08T08:10:18.061Z,35.90
2023-03-08T08:12:44.738Z,36.75
2023-03-08T08:15:11.912Z,37.50
2023-03-08T08:17:38.568Z,35.85
2023-03-08T08:20:08.042Z,35.92
2023-03-08T08:22:36.354Z,35.90
2023-03-08T08:25:07.653Z,36.60
2023-03-08T08:27:35.123Z,35.20
2023-03-08T08:30:03.129Z,34.88
2023-03-08T08:32:29.789Z,35.20
2023-03-08T08:34:56.877Z,36.13
2023-03-08T08:37:24.366Z,34.10
2023-03-08T08:39:50.994Z,32.63
2023-03-08T08:42:17.529Z,32.70
2023-03-08T08:44:44.310Z,32.00
2023-03-08T08:47:10.865Z,31.13
2023-03-08T08:49:37.518Z,29.90
2023-03-08T08:52:04.400Z,26.85
2023-03-08T08:54:31.160Z,26.65
2023-03-08T08:56:57.735Z,26.00
2023-03-08T08:59:24.358Z,23.85
2023-03-08T09:01:50.966Z,22.98
2023-03-08T09:04:17.810Z,23.48
2023-03-08T09:06:44.484Z,22.63
2023-03-08T09:09:11.295Z,22.85
2023-03-08T09:11:52.162Z,23.73
2023-03-08T09:14:21.073Z,23.08
2023-03-08T09:16:47.724Z,22.00
2023-03-08T09:19:15.477Z,21.02
2023-03-08T09:21:42.149Z,21.63
2023-03-08T09:24:10.379Z,22.00
2023-03-08T09:26:37.019Z,20.35
2023-03-08T09:29:07.679Z,19.98
2023-03-08T09:31:36.902Z,21.35
2023-03-08T09:34:09.234Z,19.67
2023-03-08T09:36:41.984Z,17.33
2023-03-08T09:39:11.123Z,17.52
2023-03-08T09:41:49.459Z,17.17
2023-03-08T09:44:44.014Z,17.67
2023-03-08T09:47:22.916Z,17.30
2023-03-08T09:49:54.318Z,17.13
2023-03-08T09:52:39.270Z,17.02
2023-03-08T09:55:16.962Z,16.67
2023-03-08T09:57:52.740Z,15.90
2023-03-08T10:00:23.505Z,17.25
2023-03-08T10:03:22.427Z,17.08
2023-03-08T10:06:20.955Z,16.60
2023-03-08T10:09:02.146Z,15.97
2023-03-08T10:11:33.003Z,15.55
2023-03-08T10:14:09.211Z,16.83
2023-03-08T10:16:43.653Z,14.57
2023-03-08T10:19:10.157Z,14.43
2023-03-08T10:21:38.853Z,13.43
2023-03-08T10:24:15.830Z,12.73
2023-03-08T10:26:43.834Z,13.43
2023-03-08T10:29:14.397Z,14.27
2023-03-08T10:31:46.983Z,14.18
2023-03-08T10:34:29.895Z,13.25
2023-03-08T10:37:06.687Z,14.23
2023-03-08T10:39:35.884Z,13.70
2023-03-08T10:42:13.525Z,13.75
2023-03-08T10:44:55.057Z,13.30
2023-03-08T10:47:31.148Z,12.27
2023-03-08T10:50:06.775Z,10.63
2023-03-08T10:52:33.377Z,9.73
2023-03-08T10:55:14.723Z,8.77
2023-03-08T10:57:48.373Z,10.45
2023-03-08T11:00:19.749Z,10.18
2023-03-08T11:02:49.369Z,10.95
2023-03-08T11:08:00.530Z,9.68
2023-03-08T11:10:29.160Z,10.35
2023-03-08T11:13:16.799Z,9.93
2023-03-08T11:15:54.356Z,9.27
2023-03-08T11:18:30.753Z,10.05
2023-03-08T11:21:06.056Z,9.60
2023-03-08T11:23:41.701Z,10.00
2023-03-08T11:26:40.397Z,8.90
2023-03-08T11:29:15.966Z,8.50
2023-03-08T11:32:10.735Z,8.57
2023-03-08T11:34:50.825Z,9.52
2023-03-08T11:37:31.528Z,7.90
2023-03-08T11:40:21.891Z,7.95
2023-03-08T11:43:21.183Z,6.35
2023-03-08T11:46:15.527Z,6.35
2023-03-08T11:48:48.236Z,6.60
2023-03-08T11:51:37.725Z,4.68
2023-03-08T11:54:25.667Z,5.45
2023-03-08T11:56:58.424Z,4.78
2023-03-08T11:59:39.828Z,4.78
2023-03-08T12:02:06.326Z,5.13
2023-03-08T12:05:03.982Z,4.35
2023-03-08T12:07:55.462Z,4.28
2023-03-08T12:10:26.043Z,3.95
2023-03-08T12:13:01.462Z,4.60
2023-03-08T12:15:30.966Z,4.45
2023-03-08T12:18:06.595Z,4.28
2023-03-08T12:20:39.636Z,4.95
2023-03-08T12:23:15.300Z,4.80
2023-03-08T12:25:45.099Z,4.65
2023-03-08T12:28:24.391Z,4.88
2023-03-08T12:31:26.580Z,4.43
2023-03-08T12:33:57.635Z,3.65
2023-03-08T12:36:37.804Z,4.00
2023-03-08T12:39:27.517Z,3.60
2023-03-08T12:42:28.727Z,3.88
2023-03-08T12:45:20.153Z,3.63
2023-03-08T12:48:00.511Z,3.75
2023-03-08T12:50:27.603Z,4.00
2023-03-08T12:52:56.062Z,3.75
2023-03-08T12:55:31.853Z,4.13
2023-03-08T12:58:01.995Z,4.10
2023-03-08T13:00:37.563Z,3.83
2023-03-08T13:03:29.013Z,3.95
2023-03-08T13:05:56.612Z,4.63
2023-03-08T13:08:35.001Z,4.88
2023-03-08T13:11:08.947Z,3.80
2023-03-08T13:13:44.677Z,3.67
2023-03-08T13:16:29.715Z,3.72
2023-03-08T13:19:27.458Z,3.40
2023-03-08T13:22:17.081Z,3.00
2023-03-08T13:24:56.488Z,3.38
2023-03-08T13:30:18.765Z,2.97
2023-03-08T13:32:45.526Z,3.60
2023-03-08T13:35:16.695Z,2.78
2023-03-08T13:37:43.545Z,2.85
2023-03-08T13:40:19.080Z,2.83
2023-03-08T13:42:59.668Z,2.92
2023-03-08T13:45:26.785Z,2.88
2023-03-08T13:47:56.344Z,2.60
2023-03-08T13:53:10.256Z,3.95
2023-03-08T13:55:44.513Z,3.15
2023-03-08T13:58:27.823Z,2.65
2023-03-08T14:01:12.709Z,2.33
2023-03-08T14:03:40.903Z,2.88
2023-03-08T14:06:23.873Z,3.67
2023-03-08T14:08:51.839Z,2.40
2023-03-08T14:11:25.016Z,3.38
2023-03-08T14:13:54.883Z,3.50
2023-03-08T14:16:26.770Z,3.17
2023-03-08T14:18:53.578Z,3.28
2023-03-08T14:21:23.554Z,2.60
2023-03-08T14:23:53.492Z,3.88
2023-03-08T14:26:40.586Z,4.65
2023-03-08T14:29:26.272Z,3.35
2023-03-08T14:31:52.901Z,4.35
2023-03-08T14:34:23.587Z,3.17
2023-03-08T14:37:22.268Z,4.32
2023-03-08T14:39:51.051Z,4.13
2023-03-08T14:42:30.967Z,3.67
2023-03-08T14:45:04.478Z,5.70
2023-03-08T14:47:35.684Z,5.63
2023-03-08T14:50:24.230Z,3.90
2023-03-08T14:52:53.782Z,3.97
2023-03-08T14:57:50.498Z,5.13
2023-03-08T15:00:18.174Z,5.32
2023-03-08T15:02:44.825Z,4.60
2023-03-08T15:05:28.031Z,4.20
2023-03-08T15:07:58.160Z,5.05
2023-03-08T15:10:37.723Z,4.00
2023-03-08T15:15:32.137Z,5.03
2023-03-08T15:17:58.681Z,4.45
2023-03-08T15:20:25.521Z,4.43
2023-03-08T15:23:05.252Z,4.60
2023-03-08T15:25:36.229Z,4.47
2023-03-08T15:28:04.401Z,4.60
2023-03-08T15:30:32.487Z,5.13
2023-03-08T15:33:00.000Z,4.63
2023-03-08T15:35:27.078Z,4.82
2023-03-08T15:37:53.834Z,4.80
2023-03-08T15:40:24.093Z,5.50
2023-03-08T15:42:50.759Z,5.15
2023-03-08T15:45:17.643Z,6.15
2023-03-08T15:47:44.432Z,5.22
2023-03-08T15:50:17.459Z,4.90
2023-03-08T15:52:45.175Z,11.57
2023-03-08T15:55:15.116Z,12.45
2023-03-08T15:57:41.970Z,9.35
2023-03-08T16:00:12.751Z,7.03
2023-03-08T16:02:40.049Z,8.02
2023-03-08T16:05:08.541Z,7.15
2023-03-08T16:07:36.153Z,7.95
2023-03-08T16:10:05.402Z,6.00
2023-03-08T16:12:31.921Z,6.13
2023-03-08T16:14:58.588Z,6.53
2023-03-08T16:17:28.540Z,6.45
2023-03-08T16:19:55.102Z,7.53
2023-03-08T16:22:22.111Z,8.15
2023-03-08T16:24:49.156Z,7.20
2023-03-08T16:27:15.866Z,7.72
2023-03-08T16:29:42.610Z,8.65
2023-03-08T16:32:14.898Z,7.43
2023-03-08T16:34:41.478Z,7.63
2023-03-08T16:37:08.173Z,7.50
2023-03-08T16:39:34.739Z,5.90
2023-03-08T16:42:01.625Z,6.53
2023-03-08T16:44:30.400Z,6.20
2023-03-08T16:46:57.020Z,6.03
2023-03-08T16:49:28.201Z,12.90
2023-03-08T16:51:55.852Z,8.07
2023-03-08T16:54:23.221Z,9.68
2023-03-08T16:56:50.532Z,9.75
2023-03-08T16:59:17.186Z,9.10
2023-03-08T17:01:44.457Z,8.88
2023-03-08T17:04:11.500Z,8.35
2023-03-08T17:06:39.171Z,7.72
2023-03-08T17:09:06.620Z,7.57
2023-03-08T17:11:35.603Z,9.27
2023-03-08T17:14:05.590Z,8.60
2023-03-08T17:16:33.234Z,9.77
2023-03-08T17:19:01.045Z,10.68
2023-03-08T17:21:29.303Z,9.27
2023-03-08T17:23:55.959Z,8.50
2023-03-08T17:26:23.186Z,10.27
2023-03-08T17:28:51.465Z,8.75
2023-03-08T17:31:21.060Z,9.88
2023-03-08T17:33:48.070Z,8.70
2023-03-08T17:36:15.669Z,9.77
2023-03-08T17:38:42.760Z,12.57
2023-03-08T17:41:12.671Z,9.45
2023-03-08T17:43:41.281Z,9.98
2023-03-08T17:46:20.108Z,9.23
2023-03-08T17:48:48.520Z,11.68
2023-03-08T17:51:17.748Z,11.85
2023-03-08T17:53:45.509Z,10.68
2023-03-08T17:56:17.579Z,10.68
2023-03-08T17:58:44.667Z,12.57
2023-03-08T18:01:19.379Z,10.68
2023-03-08T18:03:46.618Z,11.38
2023-03-08T18:06:37.916Z,9.90
2023-03-08T18:09:10.647Z,10.27
2023-03-08T18:11:37.862Z,12.32
2023-03-08T18:14:10.468Z,11.98
2023-03-08T18:16:37.472Z,12.75
2023-03-08T18:19:05.463Z,12.50
2023-03-08T18:21:34.049Z,11.65
2023-03-08T18:24:00.715Z,12.82
2023-03-08T18:26:27.839Z,12.43
2023-03-08T18:28:54.376Z,11.90
2023-03-08T18:31:25.862Z,14.45
2023-03-08T18:33:54.671Z,16.02
2023-03-08T18:36:22.415Z,12.80
2023-03-08T18:38:49.338Z,14.70
2023-03-08T18:41:23.054Z,15.50
2023-03-08T18:43:51.222Z,15.68
2023-03-08T18:46:18.019Z,15.93
2023-03-08T18:48:48.036Z,16.80
2023-03-08T18:51:16.516Z,13.80
2023-03-08T18:53:43.189Z,17.17
2023-03-08T18:56:09.764Z,18.50
2023-03-08T18:58:36.365Z,14.93
2023-03-08T19:01:10.362Z,14.95
2023-03-08T19:03:37.715Z,14.25
2023-03-08T19:06:05.215Z,15.45
2023-03-08T19:08:31.952Z,15.45
2023-03-08T19:10:59.288Z,14.60
2023-03-08T19:13:26.071Z,15.07
2023-03-08T19:15:52.679Z,14.57
2023-03-08T19:18:19.245Z,16.02
2023-03-08T19:20:45.776Z,14.70
2023-03-08T19:23:12.436Z,14.73
2023-03-08T19:25:57.276Z,14.90
2023-03-08T19:28:24.080Z,14.43
2023-03-08T19:30:50.622Z,13.25
2023-03-08T19:33:29.844Z,14.50
2023-03-08T19:35:57.409Z,13.23
2023-03-08T19:38:24.049Z,14.02
2023-03-08T19:40:50.831Z,14.68
2023-03-08T19:43:17.674Z,15.93
2023-03-08T19:45:50.817Z,29.83
2023-03-08T19:48:17.413Z,23.00
2023-03-08T19:50:45.305Z,17.08
2023-03-08T19:53:11.978Z,16.38
2023-03-08T19:55:38.547Z,16.02
2023-03-08T19:58:06.099Z,14.63
2023-03-08T20:00:32.808Z,15.38
2023-03-08T20:03:02.151Z,16.23
2023-03-08T20:05:28.770Z,15.82
2023-03-08T20:07:55.407Z,15.38
2023-03-08T20:10:22.054Z,15.27
2023-03-08T20:12:50.034Z,15.75
2023-03-08T20:15:16.823Z,14.68
2023-03-08T20:17:43.346Z,14.57
2023-03-08T20:20:11.314Z,14.52
2023-03-08T20:22:37.915Z,16.50
2023-03-08T20:25:05.136Z,16.65
2023-03-08T20:27:31.807Z,15.23
2023-03-08T20:29:58.344Z,15.73
2023-03-08T20:32:24.974Z,19.42
2023-03-08T20:34:51.592Z,17.40
2023-03-08T20:37:18.214Z,17.15
2023-03-08T20:39:44.802Z,17.88
2023-03-08T20:42:11.428Z,16.63
2023-03-08T20:44:37.976Z,18.98
2023-03-08T20:47:04.687Z,17.67
2023-03-08T20:49:31.270Z,18.17
2023-03-08T20:51:57.842Z,18.33
2023-03-08T20:54:24.395Z,21.35
2023-03-08T20:56:50.988Z,18.85
2023-03-08T20:59:20.243Z,19.20
2023-03-08T21:01:47.062Z,20.25
2023-03-08T21:04:13.656Z,20.00
2023-03-08T21:06:40.281Z,19.55
2023-03-08T21:09:06.844Z,20.27
2023-03-08T21:11:33.819Z,20.20
2023-03-08T21:14:00.485Z,22.83
2023-03-08T21:16:28.965Z,24.27
2023-03-08T21:19:00.814Z,22.48
2023-03-08T21:21:30.161Z,21.95
2023-03-08T21:23:58.770Z,25.73
2023-03-08T21:26:26.958Z,21.67
2023-03-08T21:28:56.738Z,23.83
2023-03-08T21:31:23.909Z,23.75
2023-03-08T21:33:50.797Z,24.20
2023-03-08T21:36:18.305Z,23.33
2023-03-08T21:38:45.144Z,23.15
2023-03-08T21:41:26.066Z,22.77
2023-03-08T21:43:52.875Z,22.77
2023-03-08T21:46:20.229Z,22.85
2023-03-08T21:48:47.418Z,23.63
2023-03-08T21:51:14.508Z,21.08
2023-03-08T21:53:42.069Z,23.67
2023-03-08T21:56:10.478Z,23.13
2023-03-08T21:58:37.723Z,21.38
2023-03-08T22:01:05.213Z,23.02
2023-03-08T22:03:33.344Z,23.92
2023-03-08T22:06:00.713Z,24.20
2023-03-08T22:08:27.422Z,24.45
2023-03-08T22:10:54.907Z,23.67
2023-03-08T22:13:21.757Z,24.10
2023-03-08T22:15:48.530Z,23.83
2023-03-08T22:18:15.252Z,23.65
2023-03-08T22:20:42.921Z,24.88
2023-03-08T22:23:09.592Z,24.08
2023-03-08T22:25:36.190Z,24.05
2023-03-08T22:28:02.723Z,24.20
2023-03-08T22:30:29.339Z,25.35
2023-03-08T22:32:55.985Z,25.23
2023-03-08T22:35:22.780Z,24.60
2023-03-08T22:37:50.077Z,24.92
2023-03-08T22:40:18.921Z,24.73
2023-03-08T22:42:46.362Z,25.70
2023-03-08T22:45:13.597Z,25.25
2023-03-08T22:47:40.281Z,25.50
2023-03-08T22:50:07.790Z,23.85
2023-03-08T22:52:34.397Z,26.33
2023-03-08T22:55:01.099Z,26.52
2023-03-08T22:57:27.705Z,26.08
2023-03-08T22:59:58.649Z,26.13
2023-03-08T23:02:25.695Z,25.52
2023-03-08T23:05:20.118Z,24.10
2023-03-08T23:07:46.873Z,25.25
2023-03-08T23:10:14.749Z,25.90
2023-03-08T23:12:41.430Z,23.98
2023-03-08T23:15:09.130Z,24.50
2023-03-08T23:17:35.858Z,24.83
2023-03-08T23:20:03.862Z,24.13
2023-03-08T23:22:30.479Z,23.58
2023-03-08T23:24:57.076Z,24.25
2023-03-08T23:27:23.612Z,25.25
2023-03-08T23:29:53.397Z,23.98
2023-03-08T23:32:20.246Z,25.17
2023-03-08T23:34:46.826Z,24.25
2023-03-08T23:37:13.688Z,24.92
2023-03-08T23:39:40.273Z,24.98
2023-03-08T23:42:06.897Z,24.85
2023-03-08T23:44:33.467Z,23.75
2023-03-08T23:47:00.047Z,24.15
2023-03-08T23:49:26.743Z,22.98
2023-03-08T23:51:53.274Z,25.05
2023-03-08T23:54:19.962Z,24.55
2023-03-08T23:56:46.620Z,24.40
2023-03-08T23:59:18.393Z,24.02
